Time;durP1;ratioP1;P1;durP2;ratioP2;P2;SDS_P1;SDS_P2;PMS_P1;PMS_P2;Temp;Humidity;BMP_temperature;BMP_pressure;BME280_temperature;BME280_humidity;BME280_pressure;Samples;Min_cycle;Max_cycle;Signal;HPM_P1;HPM_P2
2022/05/24 00:01:03;;;;;;;7.20;4.80;;;14.20;96.80;;;;;;5079602;28;20585;-71
2022/05/24 00:03:31;;;;;;;8.53;4.93;;;14.20;97.00;;;;;;5070373;28;20231;-70
2022/05/24 00:05:58;;;;;;;6.80;4.80;;;14.10;97.30;;;;;;5078626;28;20253;-70
2022/05/24 00:08:25;;;;;;;8.70;5.40;;;14.20;97.60;;;;;;5080487;28;20197;-70
2022/05/24 00:10:53;;;;;;;6.63;5.07;;;14.10;97.80;;;;;;5078559;28;20209;-71
2022/05/24 00:13:20;;;;;;;5.77;4.47;;;14.00;98.20;;;;;;5080168;28;20658;-70
2022/05/24 00:15:46;;;;;;;7.67;5.17;;;14.00;98.30;;;;;;5079813;28;20237;-70
2022/05/24 00:18:17;;;;;;;5.60;4.57;;;14.00;98.70;;;;;;5079798;28;20205;-70
2022/05/24 00:20:47;;;;;;;6.23;4.67;;;13.90;98.90;;;;;;5079384;28;20208;-71
2022/05/24 00:23:14;;;;;;;5.97;4.53;;;13.90;99.30;;;;;;5079981;28;20231;-70
2022/05/24 00:25:44;;;;;;;9.03;4.30;;;13.80;99.50;;;;;;5076527;28;20231;-70
2022/05/24 00:28:11;;;;;;;6.83;5.13;;;13.80;99.90;;;;;;5084228;28;20291;-70
2022/05/24 00:30:39;;;;;;;6.50;5.27;;;13.80;99.90;;;;;;5090110;28;20245;-70
2022/05/24 00:33:06;;;;;;;7.60;5.47;;;13.70;99.90;;;;;;5084131;28;20226;-71
2022/05/24 00:35:34;;;;;;;8.67;5.13;;;13.70;99.90;;;;;;5090446;28;20250;-70
2022/05/24 00:38:02;;;;;;;6.73;5.23;;;13.80;99.90;;;;;;5079726;28;20244;-70
2022/05/24 00:40:40;;;;;;;6.73;4.83;;;13.70;99.90;;;;;;5079929;28;20244;-70
2022/05/24 00:43:12;;;;;;;8.70;5.20;;;13.70;99.90;;;;;;5079707;28;20265;-71
2022/05/24 00:45:44;;;;;;;7.50;4.63;;;13.70;99.90;;;;;;5079777;28;20225;-70
2022/05/24 00:48:22;;;;;;;7.00;5.10;;;13.70;99.90;;;;;;5077934;28;20285;-71
2022/05/24 00:50:51;;;;;;;6.17;4.97;;;13.70;99.90;;;;;;5079127;28;20201;-71
2022/05/24 00:53:25;;;;;;;7.67;5.17;;;13.60;99.90;;;;;;5068582;28;20710;-71
2022/05/24 00:55:58;;;;;;;9.07;4.77;;;13.50;99.90;;;;;;5080591;28;20235;-71
2022/05/24 00:58:38;;;;;;;7.87;4.77;;;13.60;99.90;;;;;;5079217;28;20237;-70
2022/05/24 01:01:22;;;;;;;6.23;4.80;;;13.60;99.90;;;;;;5078360;28;20213;-71
2022/05/24 01:03:49;;;;;;;6.07;4.97;;;13.60;99.90;;;;;;5068936;28;20681;-70
2022/05/24 01:06:16;;;;;;;8.00;4.47;;;13.50;99.90;;;;;;5077598;28;20324;-71
2022/05/24 01:08:45;;;;;;;9.70;5.47;;;13.50;99.90;;;;;;5079149;28;20596;-70
2022/05/24 01:11:13;;;;;;;7.70;5.33;;;13.50;99.90;;;;;;5078431;28;20209;-70
2022/05/24 01:13:42;;;;;;;7.80;5.43;;;13.50;99.90;;;;;;5080091;28;20237;-68
2022/05/24 01:16:09;;;;;;;5.53;4.80;;;13.50;99.90;;;;;;5079752;28;20197;-69
2022/05/24 01:18:36;;;;;;;7.47;4.93;;;13.40;99.90;;;;;;5080120;28;20216;-70
2022/05/24 01:21:05;;;;;;;6.13;5.03;;;13.40;99.90;;;;;;5073550;28;20233;-69
2022/05/24 01:23:54;;;;;;;9.47;5.60;;;13.40;99.90;;;;;;5079362;28;20205;-70
2022/05/24 01:26:28;;;;;;;8.93;5.10;;;13.30;99.90;;;;;;5088223;28;20232;-71
2022/05/24 01:28:58;;;;;;;5.60;4.67;;;13.20;99.90;;;;;;5075605;28;20225;-71
2022/05/24 01:36:09;;;;;;;6.77;4.93;;;13.30;99.90;;;;;;5075111;28;20208;-71
2022/05/24 01:36:58;;;;;;;7.23;4.70;;;13.20;99.90;;;;;;5073885;28;20242;-70
2022/05/24 01:39:26;;;;;;;6.93;4.90;;;13.20;99.90;;;;;;5083353;28;20244;-70
2022/05/24 01:41:53;;;;;;;7.30;4.93;;;13.10;99.90;;;;;;5078969;28;20213;-70
2022/05/24 01:44:26;;;;;;;5.97;4.87;;;13.10;99.90;;;;;;5071946;28;20210;-70
2022/05/24 01:46:54;;;;;;;5.70;4.97;;;13.10;99.90;;;;;;5072877;28;20224;-71
2022/05/24 01:49:25;;;;;;;6.03;5.03;;;13.10;99.90;;;;;;5078397;28;20673;-70
2022/05/24 01:51:57;;;;;;;7.23;5.10;;;13.10;99.90;;;;;;5075102;28;20294;-71
2022/05/24 01:54:24;;;;;;;7.87;5.60;;;13.00;99.90;;;;;;5071299;28;20205;-70
2022/05/24 01:56:57;;;;;;;7.13;4.63;;;13.00;99.90;;;;;;5077355;28;20297;-70
2022/05/24 01:59:26;;;;;;;8.73;5.60;;;13.00;99.90;;;;;;5077510;28;20243;-71
2022/05/24 02:01:56;;;;;;;7.00;5.47;;;12.90;99.90;;;;;;5076194;28;20202;-70
2022/05/24 02:04:25;;;;;;;6.37;4.87;;;13.00;99.90;;;;;;5077696;28;20661;-70
2022/05/24 02:06:59;;;;;;;6.20;4.97;;;12.90;99.90;;;;;;5075625;28;20328;-70
2022/05/24 02:09:27;;;;;;;5.23;4.57;;;12.90;99.90;;;;;;5078619;28;20214;-70
2022/05/24 02:11:55;;;;;;;8.10;5.33;;;12.90;99.90;;;;;;5069867;28;20205;-71
2022/05/24 02:14:28;;;;;;;6.93;4.90;;;12.80;99.90;;;;;;5076374;28;20253;-70
2022/05/24 02:17:00;;;;;;;5.43;4.80;;;12.80;99.90;;;;;;5077033;28;20237;-70
2022/05/24 02:19:29;;;;;;;6.90;4.80;;;12.90;99.90;;;;;;5075476;28;20259;-70
2022/05/24 02:22:01;;;;;;;6.83;5.13;;;12.80;99.90;;;;;;5075390;28;20233;-70
2022/05/24 02:24:28;;;;;;;6.67;4.40;;;12.80;99.90;;;;;;5072766;28;20248;-71
2022/05/24 02:26:55;;;;;;;6.37;5.20;;;12.80;99.90;;;;;;5077246;28;20288;-70
2022/05/24 02:29:23;;;;;;;6.43;4.90;;;12.80;99.90;;;;;;5075772;28;20235;-71
2022/05/24 02:31:52;;;;;;;6.17;4.90;;;12.80;99.90;;;;;;5064717;28;20291;-70
2022/05/24 02:34:19;;;;;;;8.87;4.83;;;12.70;99.90;;;;;;5072098;28;20229;-70
2022/05/24 02:36:46;;;;;;;5.80;5.17;;;12.70;99.90;;;;;;5075471;28;20201;-69
2022/05/24 02:39:13;;;;;;;7.97;4.90;;;12.70;99.90;;;;;;5078976;28;20649;-69
2022/05/24 02:41:39;;;;;;;6.80;5.00;;;12.70;99.90;;;;;;5079560;28;20236;-70
2022/05/24 02:44:08;;;;;;;7.50;5.27;;;12.70;99.90;;;;;;5079077;28;20243;-70
2022/05/24 02:46:38;;;;;;;6.80;4.83;;;12.70;99.90;;;;;;5079616;28;20708;-70
2022/05/24 02:49:08;;;;;;;9.00;5.10;;;12.80;99.90;;;;;;5075192;28;20300;-70
2022/05/24 02:51:37;;;;;;;7.97;5.07;;;12.80;99.90;;;;;;5078495;28;20205;-71
2022/05/24 02:54:05;;;;;;;8.57;5.80;;;12.80;99.90;;;;;;5078944;28;20193;-70
2022/05/24 02:56:32;;;;;;;7.53;5.50;;;12.80;99.90;;;;;;5076872;28;20220;-70
2022/05/24 02:58:59;;;;;;;7.10;5.77;;;12.80;99.90;;;;;;5079181;28;20205;-71
2022/05/24 03:01:29;;;;;;;8.00;5.10;;;12.90;99.90;;;;;;5079544;28;20278;-70
2022/05/24 03:03:57;;;;;;;8.47;4.83;;;12.80;99.90;;;;;;5072689;28;20250;-70
2022/05/24 03:06:26;;;;;;;5.83;4.53;;;12.80;99.90;;;;;;5079483;28;20213;-71
2022/05/24 03:14:24;;;;;;;6.67;5.03;;;12.90;99.90;;;;;;5076240;28;20239;-70
2022/05/24 03:16:52;;;;;;;5.47;4.50;;;12.90;99.90;;;;;;5080075;28;20213;-70
2022/05/24 03:19:20;;;;;;;6.53;4.90;;;12.90;99.90;;;;;;5079381;28;20216;-70
2022/05/24 03:21:49;;;;;;;9.07;5.83;;;12.90;99.90;;;;;;5073147;28;20579;-70
2022/05/24 03:24:16;;;;;;;6.80;5.60;;;12.90;99.90;;;;;;5077501;28;20205;-71
2022/05/24 03:26:42;;;;;;;5.33;4.83;;;12.90;99.90;;;;;;5072874;28;20237;-70
2022/05/24 03:29:09;;;;;;;6.17;5.43;;;12.80;99.90;;;;;;5065811;28;20313;-70
2022/05/24 03:31:36;;;;;;;6.13;5.27;;;12.80;99.90;;;;;;5077084;28;20272;-70
2022/05/24 03:34:03;;;;;;;6.00;5.20;;;12.90;99.90;;;;;;5079189;28;20711;-69
2022/05/24 03:36:30;;;;;;;7.50;5.43;;;12.90;99.90;;;;;;5079466;28;20308;-71
2022/05/24 03:38:58;;;;;;;5.53;4.73;;;13.00;99.90;;;;;;5071271;28;20197;-70
2022/05/24 03:41:25;;;;;;;6.13;5.10;;;13.00;99.90;;;;;;5079178;28;20244;-70
2022/05/24 03:43:52;;;;;;;5.97;5.30;;;12.90;99.90;;;;;;5079327;28;20301;-70
2022/05/24 03:46:20;;;;;;;6.37;5.03;;;13.00;99.90;;;;;;5072488;28;20657;-70
2022/05/24 03:48:47;;;;;;;8.13;5.30;;;13.00;99.90;;;;;;5082070;28;20731;-70
2022/05/24 03:51:14;;;;;;;7.17;5.10;;;13.00;99.90;;;;;;5084116;28;20288;-70
2022/05/24 03:53:40;;;;;;;6.47;5.30;;;13.00;99.90;;;;;;5077044;28;20716;-70
2022/05/24 03:56:09;;;;;;;5.87;5.30;;;13.10;99.90;;;;;;5080103;28;20209;-70
2022/05/24 03:58:36;;;;;;;8.13;6.00;;;13.10;99.90;;;;;;5079293;28;20292;-71
2022/05/24 04:01:03;;;;;;;6.53;5.83;;;13.10;99.90;;;;;;5078602;28;20239;-70
2022/05/24 04:03:30;;;;;;;7.77;5.23;;;13.10;99.90;;;;;;5079615;28;20248;-70
2022/05/24 04:05:57;;;;;;;7.13;5.90;;;13.10;99.90;;;;;;5078005;28;20197;-70
2022/05/24 04:08:29;;;;;;;6.33;5.43;;;13.20;99.90;;;;;;5078040;28;20288;-70
2022/05/24 04:11:01;;;;;;;5.90;5.30;;;13.20;99.90;;;;;;5076995;28;20202;-69
2022/05/24 04:13:30;;;;;;;6.33;5.40;;;13.20;99.90;;;;;;5075789;28;20291;-71
2022/05/24 04:15:57;;;;;;;8.47;5.33;;;13.20;99.90;;;;;;5075526;28;20193;-71
2022/05/24 04:18:24;;;;;;;8.83;5.60;;;13.30;99.90;;;;;;5075720;28;20204;-71
2022/05/24 04:20:51;;;;;;;6.83;5.30;;;13.30;99.90;;;;;;5074420;28;20304;-71
2022/05/24 04:23:19;;;;;;;6.10;5.20;;;13.30;99.90;;;;;;5077614;28;20204;-70
2022/05/24 04:25:46;;;;;;;5.57;5.07;;;13.30;99.90;;;;;;5069489;28;20197;-71
2022/05/24 04:28:13;;;;;;;5.30;4.80;;;13.30;99.90;;;;;;5077335;28;20245;-71
2022/05/24 04:30:42;;;;;;;11.60;5.33;;;13.40;99.90;;;;;;5077601;28;20300;-71
2022/05/24 04:33:08;;;;;;;7.73;6.07;;;13.40;99.90;;;;;;5078510;28;20189;-70
2022/05/24 04:35:35;;;;;;;7.87;5.90;;;13.50;99.90;;;;;;5071145;28;20296;-70
2022/05/24 04:38:02;;;;;;;9.03;6.20;;;13.60;99.90;;;;;;5077594;28;20235;-71
2022/05/24 04:43:14;;;;;;;5.37;4.87;;;13.70;99.90;;;;;;5074120;28;20682;-71
2022/05/24 04:45:42;;;;;;;6.13;5.43;;;13.80;99.90;;;;;;5076335;28;20288;-70
2022/05/24 04:48:09;;;;;;;6.10;5.50;;;13.70;99.90;;;;;;5078219;28;20312;-70
2022/05/24 04:50:37;;;;;;;7.53;5.90;;;13.90;99.90;;;;;;5077198;28;20205;-70
2022/05/24 04:53:06;;;;;;;8.13;5.33;;;13.90;99.90;;;;;;5076237;28;20234;-70
2022/05/24 04:55:33;;;;;;;6.93;5.30;;;14.00;99.90;;;;;;5060580;28;20213;-70
2022/05/24 04:58:00;;;;;;;6.17;5.47;;;14.10;99.90;;;;;;5076999;28;20229;-70
2022/05/24 05:00:27;;;;;;;9.77;5.37;;;14.20;99.90;;;;;;5069407;28;20577;-70
2022/05/24 05:02:55;;;;;;;6.57;5.87;;;14.30;99.90;;;;;;5076687;28;20208;-71
2022/05/24 05:05:22;;;;;;;6.93;5.57;;;14.30;99.90;;;;;;5076222;28;20213;-70
2022/05/24 05:07:49;;;;;;;5.60;5.07;;;14.40;99.90;;;;;;5074939;28;20225;-70
2022/05/24 05:10:16;;;;;;;7.03;5.93;;;14.50;99.90;;;;;;5068122;28;20577;-70
2022/05/24 05:12:45;;;;;;;6.20;5.27;;;14.60;99.90;;;;;;5073449;28;20208;-70
2022/05/24 05:15:14;;;;;;;6.63;5.30;;;14.60;99.90;;;;;;5081817;28;20245;-70
2022/05/24 05:17:41;;;;;;;6.30;5.23;;;14.60;99.90;;;;;;5065103;28;20539;-70
2022/05/24 05:20:11;;;;;;;7.73;5.87;;;14.70;99.90;;;;;;5075703;28;20225;-71
2022/05/24 05:22:38;;;;;;;5.90;4.90;;;14.80;99.90;;;;;;5068770;28;20206;-64
2022/05/24 05:25:07;;;;;;;6.53;5.20;;;14.90;99.90;;;;;;5071484;28;20205;-65
2022/05/24 05:27:34;;;;;;;7.30;5.50;;;14.90;99.90;;;;;;5070973;28;20879;-65
2022/05/24 05:32:50;;;;;;;8.73;5.33;;;15.00;99.90;;;;;;5075046;28;20276;-66
2022/05/24 05:35:19;;;;;;;10.97;6.80;;;15.00;99.90;;;;;;5070812;28;20221;-66
2022/05/24 05:37:46;;;;;;;8.93;5.87;;;15.10;99.90;;;;;;5067150;28;20212;-66
2022/05/24 05:40:14;;;;;;;6.17;4.70;;;15.10;99.90;;;;;;5071123;28;20211;-66
2022/05/24 05:42:41;;;;;;;5.20;4.63;;;15.30;99.90;;;;;;5073362;28;20211;-66
2022/05/24 05:45:11;;;;;;;7.27;5.40;;;15.30;99.90;;;;;;5072650;28;20205;-65
2022/05/24 05:47:38;;;;;;;6.10;5.23;;;15.40;99.90;;;;;;5062079;28;20715;-66
2022/05/24 05:50:06;;;;;;;6.70;5.33;;;15.40;99.90;;;;;;5070355;28;20288;-66
2022/05/24 05:52:34;;;;;;;7.33;5.20;;;15.40;99.90;;;;;;5074761;28;20237;-65
2022/05/24 05:55:01;;;;;;;5.73;5.10;;;15.50;99.90;;;;;;5086090;28;20291;-66
2022/05/24 05:57:28;;;;;;;8.83;5.33;;;15.50;99.90;;;;;;5079554;28;20215;-63
2022/05/24 05:59:55;;;;;;;6.80;5.43;;;15.60;99.90;;;;;;5069747;28;20206;-65
2022/05/24 06:02:22;;;;;;;8.33;5.43;;;15.70;99.90;;;;;;5082745;28;20216;-66
2022/05/24 06:04:51;;;;;;;8.30;5.30;;;15.70;99.90;;;;;;5061980;28;20197;-66
2022/05/24 06:07:17;;;;;;;6.17;4.67;;;15.80;99.90;;;;;;5071658;28;20212;-65
2022/05/24 06:09:46;;;;;;;7.33;5.73;;;15.90;99.90;;;;;;5075356;28;20257;-65
2022/05/24 06:12:13;;;;;;;8.13;4.80;;;15.90;99.90;;;;;;5072929;28;20292;-65
2022/05/24 06:14:40;;;;;;;8.03;5.30;;;16.00;99.90;;;;;;5076946;28;20233;-65
2022/05/24 06:17:06;;;;;;;7.37;5.20;;;16.10;99.90;;;;;;5085445;28;20204;-65
2022/05/24 06:19:33;;;;;;;7.80;4.90;;;16.20;99.90;;;;;;5087579;28;20220;-65
2022/05/24 06:22:00;;;;;;;4.80;4.27;;;16.30;99.90;;;;;;5076049;28;20628;-65
2022/05/24 06:24:27;;;;;;;6.47;4.80;;;16.30;99.90;;;;;;5072287;28;20724;-70
2022/05/24 06:26:56;;;;;;;6.60;4.60;;;16.30;99.90;;;;;;5073188;28;20217;-67
2022/05/24 06:29:23;;;;;;;5.13;4.30;;;16.40;99.90;;;;;;5080586;28;20236;-65
2022/05/24 06:31:50;;;;;;;4.93;4.00;;;16.50;99.90;;;;;;5067881;28;20214;-65
2022/05/24 06:34:17;;;;;;;4.50;4.10;;;16.50;99.90;;;;;;5075684;28;20229;-66
2022/05/24 06:36:44;;;;;;;5.93;4.03;;;16.50;99.90;;;;;;5068163;28;20205;-66
2022/05/24 06:39:11;;;;;;;6.70;4.03;;;16.60;99.90;;;;;;5065935;28;20240;-68
2022/05/24 06:41:38;;;;;;;6.45;3.85;;;16.60;99.90;;;;;;5070115;28;20205;-66
2022/05/24 06:44:07;;;;;;;4.25;3.65;;;16.70;99.90;;;;;;5059649;28;20205;-67
2022/05/24 06:46:33;;;;;;;8.75;4.53;;;16.80;99.90;;;;;;5072642;28;20583;-67
2022/05/24 06:49:00;;;;;;;4.93;4.07;;;16.90;99.90;;;;;;5071409;28;20289;-65
2022/05/24 06:51:27;;;;;;;4.27;3.87;;;17.00;99.90;;;;;;5070393;28;20209;-67
2022/05/24 06:53:54;;;;;;;7.40;3.50;;;17.10;99.90;;;;;;5063066;28;20241;-67
2022/05/24 06:56:21;;;;;;;6.95;3.45;;;17.20;99.90;;;;;;5071840;28;20197;-68
2022/05/24 06:58:48;;;;;;;4.18;3.25;;;17.40;99.90;;;;;;5073140;28;20296;-68
2022/05/24 07:04:01;;;;;;;8.38;3.80;;;17.60;98.80;;;;;;5067041;28;20247;-68
2022/05/24 07:06:27;;;;;;;5.30;3.38;;;17.70;98.10;;;;;;5072143;28;20231;-69
2022/05/24 07:08:55;;;;;;;6.38;2.70;;;17.90;97.60;;;;;;5072441;28;20225;-65
2022/05/24 07:11:22;;;;;;;7.97;3.72;;;18.00;97.10;;;;;;5068673;28;20689;-67
2022/05/24 07:13:50;;;;;;;3.33;3.03;;;18.10;96.60;;;;;;5070838;28;20249;-68
2022/05/24 07:16:18;;;;;;;4.13;3.45;;;18.30;96.00;;;;;;5069616;28;20209;-70
2022/05/24 07:18:46;;;;;;;5.72;3.92;;;18.40;95.70;;;;;;5071711;28;20327;-67
2022/05/24 07:21:13;;;;;;;4.85;3.45;;;18.40;95.30;;;;;;5067472;28;20729;-66
2022/05/24 07:23:40;;;;;;;11.68;3.08;;;18.50;95.00;;;;;;5069380;28;20205;-66
2022/05/24 07:26:13;;;;;;;3.83;3.13;;;18.60;94.70;;;;;;5067277;28;20197;-67
2022/05/24 07:28:40;;;;;;;2.58;2.38;;;18.80;94.60;;;;;;5075645;28;20265;-67
2022/05/24 07:31:07;;;;;;;3.60;2.63;;;18.90;93.70;;;;;;5073133;28;20209;-66
2022/05/24 07:33:36;;;;;;;4.07;2.60;;;19.00;93.30;;;;;;5083394;28;20236;-66
2022/05/24 07:36:04;;;;;;;2.88;2.30;;;19.10;92.30;;;;;;5080514;28;20201;-65
2022/05/24 07:38:30;;;;;;;3.63;3.10;;;19.20;91.50;;;;;;5069597;28;20224;-68
2022/05/24 07:46:27;;;;;;;3.40;2.85;;;19.40;90.70;;;;;;5065270;28;20704;-67
2022/05/24 07:48:56;;;;;;;3.33;3.00;;;19.50;89.90;;;;;;5075085;28;20264;-66
2022/05/24 07:51:22;;;;;;;3.60;3.17;;;19.50;89.30;;;;;;5073607;28;20207;-67
2022/05/24 07:53:49;;;;;;;3.63;2.67;;;19.60;89.20;;;;;;5078622;28;20199;-66
2022/05/24 07:56:18;;;;;;;3.08;2.72;;;19.80;88.50;;;;;;5074774;28;20291;-66
2022/05/24 07:58:45;;;;;;;3.78;2.55;;;19.90;85.20;;;;;;5073254;28;20204;-66
2022/05/24 08:01:14;;;;;;;3.00;2.30;;;20.10;83.40;;;;;;5072694;28;20211;-67
2022/05/24 08:03:41;;;;;;;6.13;2.38;;;20.20;79.60;;;;;;5081935;28;20234;-65
2022/05/24 08:06:10;;;;;;;3.20;2.15;;;20.30;78.30;;;;;;5085619;28;20209;-65
2022/05/24 08:08:38;;;;;;;6.50;2.28;;;20.40;77.90;;;;;;5077678;28;20319;-67
2022/05/24 08:11:06;;;;;;;3.08;1.73;;;20.60;76.90;;;;;;5077242;28;20206;-67
2022/05/24 08:13:35;;;;;;;3.97;1.92;;;20.70;75.30;;;;;;5072727;28;20219;-66
2022/05/24 08:16:04;;;;;;;2.28;1.88;;;20.70;74.10;;;;;;5066641;28;20723;-66
2022/05/24 08:18:32;;;;;;;2.40;2.05;;;20.70;74.00;;;;;;5067336;28;20613;-66
2022/05/24 08:20:59;;;;;;;2.53;2.00;;;20.70;73.30;;;;;;5074241;28;20266;-65
2022/05/24 08:23:28;;;;;;;3.10;2.38;;;20.80;72.70;;;;;;5072257;28;20258;-67
2022/05/24 08:25:56;;;;;;;2.75;2.33;;;20.80;71.70;;;;;;5072881;28;20205;-67
2022/05/24 08:28:22;;;;;;;6.20;2.47;;;20.90;71.70;;;;;;5084028;28;20209;-67
2022/05/24 08:30:50;;;;;;;2.65;2.40;;;21.00;70.70;;;;;;5072672;28;20209;-68
2022/05/24 08:33:18;;;;;;;2.47;1.88;;;21.10;70.70;;;;;;5083317;28;20279;-65
2022/05/24 08:35:45;;;;;;;2.15;2.00;;;21.10;70.20;;;;;;5069889;28;20209;-67
2022/05/24 08:38:13;;;;;;;2.53;2.30;;;21.20;69.90;;;;;;5081293;28;20699;-66
2022/05/24 08:40:44;;;;;;;2.90;1.70;;;21.30;69.80;;;;;;5081753;28;20213;-66
2022/05/24 08:43:37;;;;;;;4.30;2.20;;;21.40;69.00;;;;;;5074793;28;20212;-66
2022/05/24 08:49:03;;;;;;;8.13;2.35;;;21.50;66.40;;;;;;5074240;28;20294;-66
2022/05/24 08:51:32;;;;;;;5.30;2.22;;;21.70;66.00;;;;;;5070923;28;20197;-67
2022/05/24 08:54:08;;;;;;;4.30;2.42;;;21.70;65.60;;;;;;5069978;28;20213;-65
2022/05/24 08:56:42;;;;;;;4.55;2.13;;;21.70;65.60;;;;;;5072332;28;20243;-67
2022/05/24 08:59:16;;;;;;;2.15;1.95;;;21.70;65.80;;;;;;5071489;28;20718;-66
2022/05/24 09:01:45;;;;;;;2.38;1.90;;;21.70;66.00;;;;;;5073699;28;20202;-66
2022/05/24 09:04:13;;;;;;;3.53;2.10;;;21.80;66.90;;;;;;5074428;28;20201;-68
2022/05/24 09:06:47;;;;;;;4.20;2.90;;;21.90;66.50;;;;;;5074808;28;20491;-68
2022/05/24 09:09:34;;;;;;;2.58;1.77;;;22.00;66.30;;;;;;5074185;28;20216;-65
2022/05/24 09:12:16;;;;;;;2.78;2.47;;;22.20;66.20;;;;;;5064346;28;20673;-67
2022/05/24 09:14:51;;;;;;;3.25;2.60;;;22.30;65.90;;;;;;5080924;28;20236;-69
2022/05/24 09:17:31;;;;;;;6.93;3.30;;;22.40;65.50;;;;;;5080184;28;20442;-65
2022/05/24 09:19:58;;;;;;;4.60;3.05;;;22.60;65.50;;;;;;5059759;28;20223;-66
2022/05/24 09:22:25;;;;;;;3.20;2.00;;;22.70;65.30;;;;;;5070789;28;20216;-68
2022/05/24 09:24:56;;;;;;;3.00;1.92;;;22.80;63.40;;;;;;5074236;28;20239;-65
2022/05/24 09:27:28;;;;;;;3.47;2.20;;;22.80;62.70;;;;;;5081241;28;20205;-65
2022/05/24 09:30:02;;;;;;;4.93;2.63;;;22.80;62.50;;;;;;5072797;28;20264;-64
2022/05/24 09:32:39;;;;;;;6.85;3.10;;;22.90;62.60;;;;;;5088871;28;20204;-66
2022/05/24 09:35:19;;;;;;;3.70;2.28;;;22.80;62.40;;;;;;5079351;28;20595;-67
2022/05/24 09:38:03;;;;;;;3.42;2.15;;;22.90;62.50;;;;;;5073228;28;20243;-65
2022/05/24 09:40:33;;;;;;;3.17;2.10;;;22.90;61.70;;;;;;5072218;28;20255;-67
2022/05/24 09:43:17;;;;;;;3.63;2.00;;;23.00;61.40;;;;;;5070057;28;20220;-67
2022/05/24 09:45:47;;;;;;;3.17;1.92;;;22.90;61.10;;;;;;5084354;28;20205;-66
2022/05/24 09:48:23;;;;;;;3.15;1.83;;;23.00;61.30;;;;;;5067657;28;20251;-65
2022/05/24 09:50:52;;;;;;;4.88;2.50;;;23.20;61.00;;;;;;5074048;28;20193;-66
2022/05/24 09:53:22;;;;;;;4.07;2.15;;;23.20;60.00;;;;;;5079512;28;20599;-66
2022/05/24 09:55:51;;;;;;;5.13;2.58;;;23.20;59.60;;;;;;5077156;28;20210;-65
2022/05/24 09:58:26;;;;;;;14.15;2.47;;;23.30;59.80;;;;;;5082736;28;20236;-65
2022/05/24 10:00:56;;;;;;;4.53;2.50;;;23.30;59.60;;;;;;5071112;28;20228;-64
2022/05/24 10:03:27;;;;;;;3.05;1.85;;;23.20;59.70;;;;;;5064787;28;20202;-66
2022/05/24 10:05:57;;;;;;;2.95;2.25;;;23.10;60.00;;;;;;5074670;28;20601;-67
2022/05/24 10:08:24;;;;;;;2.70;2.50;;;23.10;60.30;;;;;;5073247;28;20213;-67
2022/05/24 10:10:57;;;;;;;2.47;1.90;;;23.00;60.50;;;;;;5077372;28;20351;-66
2022/05/24 10:13:37;;;;;;;2.13;1.70;;;22.90;60.60;;;;;;5079405;28;20208;-71
2022/05/24 10:16:12;;;;;;;2.42;1.80;;;22.80;60.30;;;;;;5084815;28;20207;-69
2022/05/24 10:18:54;;;;;;;4.18;2.20;;;22.80;60.70;;;;;;5075416;28;20294;-69
2022/05/24 10:21:29;;;;;;;4.22;2.15;;;22.70;61.10;;;;;;5074371;28;20216;-71
2022/05/24 10:24:03;;;;;;;4.20;1.92;;;22.70;60.30;;;;;;5076386;28;20212;-70
2022/05/24 10:26:43;;;;;;;4.00;1.70;;;22.70;60.30;;;;;;5077847;28;20211;-70
2022/05/24 10:29:24;;;;;;;2.45;2.10;;;22.60;59.60;;;;;;5074889;28;20671;-70
2022/05/24 10:31:58;;;;;;;4.53;1.90;;;22.60;59.80;;;;;;5075197;28;20258;-69
2022/05/24 10:40:30;;;;;;;3.60;2.10;;;22.40;59.20;;;;;;5072786;28;20572;-69
2022/05/24 10:43:18;;;;;;;3.70;1.83;;;22.20;59.70;;;;;;5066234;28;20200;-69
2022/05/24 10:45:52;;;;;;;2.50;1.73;;;22.10;59.50;;;;;;5072362;28;20280;-71
2022/05/24 10:48:32;;;;;;;2.78;1.80;;;22.00;59.20;;;;;;5063369;28;22043;-68
2022/05/24 10:51:05;;;;;;;4.45;1.50;;;22.00;59.50;;;;;;5065752;28;20209;-69
2022/05/24 10:53:39;;;;;;;1.65;1.55;;;22.00;59.20;;;;;;5070440;28;20213;-71
2022/05/24 10:56:14;;;;;;;4.00;1.50;;;22.10;58.80;;;;;;5060331;28;20210;-70
2022/05/24 10:58:42;;;;;;;2.70;1.60;;;22.10;58.40;;;;;;5074763;28;20304;-69
2022/05/24 11:01:25;;;;;;;5.28;1.98;;;22.00;58.20;;;;;;5082786;28;20289;-69
2022/05/24 11:03:57;;;;;;;2.08;1.85;;;22.10;58.60;;;;;;5085061;28;20205;-70
2022/05/24 11:06:30;;;;;;;2.55;1.30;;;22.20;58.60;;;;;;5082529;28;20239;-69
2022/05/24 11:09:04;;;;;;;2.60;1.42;;;22.30;58.20;;;;;;5086550;28;20236;-69
2022/05/24 11:11:37;;;;;;;1.70;1.13;;;22.40;57.70;;;;;;5079765;28;20208;-68
2022/05/24 11:14:10;;;;;;;1.83;1.60;;;22.40;57.60;;;;;;5075044;28;20248;-69
2022/05/24 11:16:41;;;;;;;2.63;1.80;;;22.30;57.70;;;;;;5078807;28;20221;-68
2022/05/24 11:19:11;;;;;;;4.03;1.42;;;22.20;58.00;;;;;;5083495;28;20242;-68
2022/05/24 11:21:42;;;;;;;1.92;1.67;;;22.10;58.40;;;;;;5082295;28;20216;-69
2022/05/24 11:24:15;;;;;;;3.08;2.08;;;21.90;58.60;;;;;;5077140;28;20197;-69
2022/05/24 11:26:50;;;;;;;3.95;2.03;;;21.80;59.20;;;;;;5072300;28;20289;-70
2022/05/24 11:29:24;;;;;;;2.85;1.60;;;21.70;59.50;;;;;;5068642;28;20305;-70
2022/05/24 11:32:00;;;;;;;4.88;1.80;;;21.60;59.80;;;;;;5072234;28;20201;-71
2022/05/24 11:34:30;;;;;;;2.33;1.65;;;21.50;60.20;;;;;;5077793;28;20212;-70
2022/05/24 11:37:11;;;;;;;1.77;1.67;;;21.50;60.30;;;;;;5076755;28;20590;-74
2022/05/24 11:39:40;;;;;;;2.80;1.75;;;21.40;60.30;;;;;;5078108;28;20284;-73
2022/05/24 11:42:32;;;;;;;2.00;1.75;;;21.30;60.70;;;;;;5081589;28;20209;-73
2022/05/24 11:45:38;;;;;;;1.55;1.45;;;21.40;60.60;;;;;;5074736;28;20233;-73
2022/05/24 11:48:19;;;;;;;6.05;2.10;;;21.30;59.80;;;;;;5087498;28;20196;-71
2022/05/24 11:50:50;;;;;;;2.75;1.55;;;21.40;59.80;;;;;;5085380;28;20280;-74
2022/05/24 11:53:49;;;;;;;6.35;1.88;;;21.50;59.80;;;;;;5096014;28;20219;-74
2022/05/24 11:56:24;;;;;;;3.20;1.63;;;21.60;59.50;;;;;;5073838;28;20194;-75
2022/05/24 11:58:58;;;;;;;2.75;2.40;;;21.60;59.10;;;;;;5094300;28;20201;-73
2022/05/24 12:02:01;;;;;;;2.60;1.38;;;21.70;59.20;;;;;;5092150;28;20227;-74
2022/05/24 12:07:55;;;;;;;1.55;1.45;;;22.00;59.30;;;;;;5087687;28;20204;-73
2022/05/24 12:11:09;;;;;;;2.92;1.42;;;22.10;59.30;;;;;;5085783;28;20280;-70
2022/05/24 12:13:54;;;;;;;2.22;1.52;;;22.20;59.10;;;;;;5082905;28;20247;-69
2022/05/24 12:16:37;;;;;;;4.97;1.30;;;22.30;59.20;;;;;;5081788;28;20662;-71
2022/05/24 12:19:06;;;;;;;1.58;1.50;;;22.40;59.00;;;;;;5067140;28;20265;-70
2022/05/24 12:22:02;;;;;;;1.52;1.42;;;22.40;59.10;;;;;;5077150;28;20231;-71
2022/05/24 12:24:55;;;;;;;2.13;1.38;;;22.50;59.60;;;;;;5081223;28;20211;-71
2022/05/24 12:27:29;;;;;;;1.33;1.23;;;22.50;58.60;;;;;;5090165;28;20196;-71
2022/05/24 12:30:00;;;;;;;6.57;1.33;;;22.50;58.60;;;;;;5084002;28;20225;-72
2022/05/24 12:32:31;;;;;;;2.90;1.50;;;22.50;58.30;;;;;;5086583;28;20207;-72
2022/05/24 12:35:07;;;;;;;1.67;1.40;;;22.60;58.20;;;;;;5089772;28;20208;-73
2022/05/24 12:37:37;;;;;;;1.95;1.35;;;22.50;58.10;;;;;;5088512;28;20211;-72
2022/05/24 12:40:28;;;;;;;3.35;1.20;;;22.40;58.10;;;;;;5083967;28;20295;-70
2022/05/24 12:42:58;;;;;;;1.58;1.48;;;22.40;57.90;;;;;;5072588;28;20208;-72
2022/05/24 12:45:31;;;;;;;1.45;1.35;;;22.30;58.20;;;;;;5084080;28;20235;-72
2022/05/24 12:47:59;;;;;;;3.08;1.33;;;22.20;58.60;;;;;;5070956;28;20201;-72
2022/05/24 12:50:31;;;;;;;2.10;1.20;;;22.10;58.60;;;;;;5075762;28;20225;-72
2022/05/24 12:53:02;;;;;;;2.58;1.77;;;22.10;59.10;;;;;;5076484;28;20265;-71
2022/05/24 12:58:24;;;;;;;2.28;1.40;;;22.10;59.30;;;;;;5083883;28;20250;-71
2022/05/24 13:00:51;;;;;;;2.70;1.80;;;22.20;59.30;;;;;;5082949;28;20193;-71
2022/05/24 13:03:23;;;;;;;1.30;1.20;;;22.20;59.40;;;;;;5083699;28;20229;-71
2022/05/24 13:05:54;;;;;;;2.45;1.70;;;22.20;59.40;;;;;;5081307;28;20201;-71
2022/05/24 13:08:22;;;;;;;8.20;1.48;;;22.20;59.40;;;;;;5078756;28;20231;-74
2022/05/24 13:10:50;;;;;;;2.05;1.35;;;22.10;59.10;;;;;;5072593;28;20561;-74
2022/05/24 13:13:21;;;;;;;4.57;1.80;;;22.00;59.20;;;;;;5074743;28;20592;-72
2022/05/24 13:15:50;;;;;;;1.50;1.40;;;21.90;59.30;;;;;;5085082;28;20212;-73
2022/05/24 13:18:20;;;;;;;1.77;1.20;;;21.80;59.50;;;;;;5082190;28;20209;-73
2022/05/24 13:20:49;;;;;;;2.30;1.42;;;21.70;59.50;;;;;;5080052;28;20225;-74
2022/05/24 13:23:28;;;;;;;7.63;1.52;;;21.60;59.40;;;;;;5073611;28;20279;-73
2022/05/24 13:25:56;;;;;;;4.68;2.65;;;21.60;59.70;;;;;;5075534;28;20207;-71
2022/05/24 13:28:39;;;;;;;2.05;1.30;;;21.50;59.70;;;;;;5083829;28;20213;-72
2022/05/24 13:33:57;;;;;;;1.38;1.27;;;21.30;59.70;;;;;;5072654;28;20558;-70
2022/05/24 13:36:26;;;;;;;1.60;1.40;;;21.20;59.70;;;;;;5080850;28;20209;-72
2022/05/24 13:39:12;;;;;;;3.17;1.50;;;21.10;59.70;;;;;;5074347;28;20214;-70
2022/05/24 13:41:41;;;;;;;1.70;1.40;;;21.00;60.00;;;;;;5075068;28;20241;-71
2022/05/24 13:44:28;;;;;;;2.00;1.30;;;20.90;60.40;;;;;;5070803;28;20243;-71